TWF weather

Joslin Field Magic Valley Regional Airport
Twin Falls, Idaho, United States

Public forecast

Using degrees Fahrenheit for public forecast. Weather courtesy of forecast.io.

Current aviation weather report (METAR) for Joslin Field Magic Valley Regional Airport

Retrieved 2020/07/04 00:53 UTC (37 minutes ago):

KTWF 040053Z AUTO 36006KT 10SM CLR 29/07 A2999 RMK AO2 SLP103 T02890067

Aviation forecast (TAF) for Joslin Field Magic Valley Regional Airport

Retrieved 2020-07-04 00:22 UTC (1 hour ago):

TAF KTWF 032320Z 0400/0424 33008KT P6SM FEW250 FM040300 18009KT P6SM SCT150 FM041500 26007KT P6SM SCT250 FM042200 30012G20KT P6SM BKN250